sensor_id;sensor_type;location;lat;lon;timestamp;P1;durP1;ratioP1;P2;durP2;ratioP2
67514;SDS011;60646;55.802;37.032;2022-08-14T00:01:43;10.05;;;6.93;;
67514;SDS011;60646;55.802;37.032;2022-08-14T00:04:09;8.90;;;6.18;;
67514;SDS011;60646;55.802;37.032;2022-08-14T00:06:34;11.95;;;6.70;;
67514;SDS011;60646;55.802;37.032;2022-08-14T00:09:00;9.65;;;5.85;;
67514;SDS011;60646;55.802;37.032;2022-08-14T00:11:27;10.27;;;6.32;;
67514;SDS011;60646;55.802;37.032;2022-08-14T00:13:53;9.73;;;6.30;;
67514;SDS011;60646;55.802;37.032;2022-08-14T00:16:19;8.93;;;6.63;;
67514;SDS011;60646;55.802;37.032;2022-08-14T00:18:45;10.05;;;6.30;;
67514;SDS011;60646;55.802;37.032;2022-08-14T00:21:11;8.55;;;5.60;;
67514;SDS011;60646;55.802;37.032;2022-08-14T00:23:38;9.88;;;6.15;;
67514;SDS011;60646;55.802;37.032;2022-08-14T00:26:04;9.60;;;6.18;;
67514;SDS011;60646;55.802;37.032;2022-08-14T00:28:30;10.90;;;6.20;;
67514;SDS011;60646;55.802;37.032;2022-08-14T00:30:56;11.43;;;6.03;;
67514;SDS011;60646;55.802;37.032;2022-08-14T00:33:24;10.63;;;5.85;;
67514;SDS011;60646;55.802;37.032;2022-08-14T00:35:51;8.50;;;5.88;;
67514;SDS011;60646;55.802;37.032;2022-08-14T00:38:36;7.78;;;5.93;;
67514;SDS011;60646;55.802;37.032;2022-08-14T00:41:05;8.57;;;6.07;;
67514;SDS011;60646;55.802;37.032;2022-08-14T00:43:34;7.55;;;5.55;;
67514;SDS011;60646;55.802;37.032;2022-08-14T00:46:04;7.75;;;5.78;;
67514;SDS011;60646;55.802;37.032;2022-08-14T00:48:41;8.53;;;5.73;;
67514;SDS011;60646;55.802;37.032;2022-08-14T00:51:58;7.35;;;5.55;;
67514;SDS011;60646;55.802;37.032;2022-08-14T00:54:25;9.75;;;6.28;;
67514;SDS011;60646;55.802;37.032;2022-08-14T00:56:51;10.18;;;6.28;;
67514;SDS011;60646;55.802;37.032;2022-08-14T00:59:17;7.40;;;5.00;;
67514;SDS011;60646;55.802;37.032;2022-08-14T01:01:43;7.32;;;5.68;;
67514;SDS011;60646;55.802;37.032;2022-08-14T01:04:09;7.07;;;5.28;;
67514;SDS011;60646;55.802;37.032;2022-08-14T01:06:36;8.48;;;5.50;;
67514;SDS011;60646;55.802;37.032;2022-08-14T01:12:30;7.97;;;5.63;;
67514;SDS011;60646;55.802;37.032;2022-08-14T01:14:58;8.10;;;5.38;;
67514;SDS011;60646;55.802;37.032;2022-08-14T01:17:27;10.15;;;5.65;;
67514;SDS011;60646;55.802;37.032;2022-08-14T01:20:14;10.40;;;5.93;;
67514;SDS011;60646;55.802;37.032;2022-08-14T01:22:58;8.68;;;6.03;;
67514;SDS011;60646;55.802;37.032;2022-08-14T01:25:25;9.30;;;6.03;;
67514;SDS011;60646;55.802;37.032;2022-08-14T01:27:51;9.13;;;5.68;;
67514;SDS011;60646;55.802;37.032;2022-08-14T01:30:19;8.23;;;5.78;;
67514;SDS011;60646;55.802;37.032;2022-08-14T01:32:48;7.57;;;5.45;;
67514;SDS011;60646;55.802;37.032;2022-08-14T01:35:14;9.15;;;5.57;;
67514;SDS011;60646;55.802;37.032;2022-08-14T01:37:44;9.55;;;5.82;;
67514;SDS011;60646;55.802;37.032;2022-08-14T01:40:14;6.82;;;5.57;;
67514;SDS011;60646;55.802;37.032;2022-08-14T01:42:41;9.80;;;5.55;;
67514;SDS011;60646;55.802;37.032;2022-08-14T01:45:07;9.57;;;5.78;;
67514;SDS011;60646;55.802;37.032;2022-08-14T01:47:37;8.15;;;5.72;;
67514;SDS011;60646;55.802;37.032;2022-08-14T01:50:04;7.35;;;5.72;;
67514;SDS011;60646;55.802;37.032;2022-08-14T01:52:32;9.90;;;6.03;;
67514;SDS011;60646;55.802;37.032;2022-08-14T01:54:59;10.05;;;5.53;;
67514;SDS011;60646;55.802;37.032;2022-08-14T01:57:25;8.30;;;5.88;;
67514;SDS011;60646;55.802;37.032;2022-08-14T01:59:51;7.55;;;5.90;;
67514;SDS011;60646;55.802;37.032;2022-08-14T02:02:21;8.20;;;5.68;;
67514;SDS011;60646;55.802;37.032;2022-08-14T02:04:47;10.23;;;5.90;;
67514;SDS011;60646;55.802;37.032;2022-08-14T02:07:12;7.80;;;5.10;;
67514;SDS011;60646;55.802;37.032;2022-08-14T02:09:38;8.95;;;5.88;;
67514;SDS011;60646;55.802;37.032;2022-08-14T02:12:07;9.70;;;6.00;;
67514;SDS011;60646;55.802;37.032;2022-08-14T02:14:33;10.57;;;5.80;;
67514;SDS011;60646;55.802;37.032;2022-08-14T02:17:00;10.75;;;5.68;;
67514;SDS011;60646;55.802;37.032;2022-08-14T02:19:27;8.43;;;6.05;;
67514;SDS011;60646;55.802;37.032;2022-08-14T02:21:55;7.70;;;5.40;;
67514;SDS011;60646;55.802;37.032;2022-08-14T02:24:24;8.55;;;5.43;;
67514;SDS011;60646;55.802;37.032;2022-08-14T02:26:53;9.75;;;5.82;;
67514;SDS011;60646;55.802;37.032;2022-08-14T02:29:21;6.65;;;5.45;;
67514;SDS011;60646;55.802;37.032;2022-08-14T02:31:49;7.82;;;5.82;;
67514;SDS011;60646;55.802;37.032;2022-08-14T02:36:45;8.90;;;5.63;;
67514;SDS011;60646;55.802;37.032;2022-08-14T02:39:12;7.75;;;5.43;;
67514;SDS011;60646;55.802;37.032;2022-08-14T02:41:39;9.98;;;6.00;;
67514;SDS011;60646;55.802;37.032;2022-08-14T02:44:07;7.40;;;5.28;;
67514;SDS011;60646;55.802;37.032;2022-08-14T02:46:37;8.52;;;6.00;;
67514;SDS011;60646;55.802;37.032;2022-08-14T02:49:05;9.30;;;5.60;;
67514;SDS011;60646;55.802;37.032;2022-08-14T02:51:31;7.20;;;5.28;;
67514;SDS011;60646;55.802;37.032;2022-08-14T02:53:58;8.82;;;5.88;;
67514;SDS011;60646;55.802;37.032;2022-08-14T02:56:25;9.18;;;6.10;;
67514;SDS011;60646;55.802;37.032;2022-08-14T02:58:52;7.53;;;5.15;;
67514;SDS011;60646;55.802;37.032;2022-08-14T03:01:21;9.32;;;5.65;;
67514;SDS011;60646;55.802;37.032;2022-08-14T03:03:49;7.20;;;5.43;;
67514;SDS011;60646;55.802;37.032;2022-08-14T03:06:15;8.60;;;5.75;;
67514;SDS011;60646;55.802;37.032;2022-08-14T03:08:45;7.40;;;5.63;;
67514;SDS011;60646;55.802;37.032;2022-08-14T03:11:12;7.97;;;5.82;;
67514;SDS011;60646;55.802;37.032;2022-08-14T03:13:40;10.73;;;6.03;;
67514;SDS011;60646;55.802;37.032;2022-08-14T03:16:09;8.00;;;6.07;;
67514;SDS011;60646;55.802;37.032;2022-08-14T03:18:44;10.00;;;6.63;;
67514;SDS011;60646;55.802;37.032;2022-08-14T03:21:12;10.55;;;6.00;;
67514;SDS011;60646;55.802;37.032;2022-08-14T03:23:41;7.63;;;5.85;;
67514;SDS011;60646;55.802;37.032;2022-08-14T03:26:10;9.63;;;6.80;;
67514;SDS011;60646;55.802;37.032;2022-08-14T03:28:40;9.30;;;6.22;;
67514;SDS011;60646;55.802;37.032;2022-08-14T03:31:08;7.85;;;6.03;;
67514;SDS011;60646;55.802;37.032;2022-08-14T03:33:35;9.32;;;6.50;;
67514;SDS011;60646;55.802;37.032;2022-08-14T03:36:06;11.82;;;6.63;;
67514;SDS011;60646;55.802;37.032;2022-08-14T03:38:36;8.52;;;6.00;;
67514;SDS011;60646;55.802;37.032;2022-08-14T03:41:17;8.68;;;6.88;;
67514;SDS011;60646;55.802;37.032;2022-08-14T03:43:48;9.65;;;6.75;;
67514;SDS011;60646;55.802;37.032;2022-08-14T03:46:16;9.95;;;6.30;;
67514;SDS011;60646;55.802;37.032;2022-08-14T03:48:43;9.43;;;6.18;;
67514;SDS011;60646;55.802;37.032;2022-08-14T03:51:10;7.65;;;6.35;;
67514;SDS011;60646;55.802;37.032;2022-08-14T03:53:38;8.98;;;6.57;;
67514;SDS011;60646;55.802;37.032;2022-08-14T03:56:10;8.52;;;6.40;;
67514;SDS011;60646;55.802;37.032;2022-08-14T03:58:47;8.98;;;6.30;;
67514;SDS011;60646;55.802;37.032;2022-08-14T04:01:15;9.55;;;6.22;;
67514;SDS011;60646;55.802;37.032;2022-08-14T04:04:07;10.50;;;6.25;;
67514;SDS011;60646;55.802;37.032;2022-08-14T04:06:37;8.73;;;6.10;;
67514;SDS011;60646;55.802;37.032;2022-08-14T04:09:06;9.32;;;6.72;;
67514;SDS011;60646;55.802;37.032;2022-08-14T04:11:32;12.35;;;6.40;;
67514;SDS011;60646;55.802;37.032;2022-08-14T04:14:00;9.20;;;6.57;;
67514;SDS011;60646;55.802;37.032;2022-08-14T04:16:27;8.20;;;5.80;;
67514;SDS011;60646;55.802;37.032;2022-08-14T04:18:54;9.63;;;6.72;;
67514;SDS011;60646;55.802;37.032;2022-08-14T04:21:25;8.23;;;6.40;;
67514;SDS011;60646;55.802;37.032;2022-08-14T04:23:56;9.90;;;6.30;;
67514;SDS011;60646;55.802;37.032;2022-08-14T04:26:23;10.80;;;6.13;;
67514;SDS011;60646;55.802;37.032;2022-08-14T04:28:50;12.73;;;6.63;;
67514;SDS011;60646;55.802;37.032;2022-08-14T04:31:17;11.60;;;6.85;;
67514;SDS011;60646;55.802;37.032;2022-08-14T04:33:43;9.48;;;6.35;;
67514;SDS011;60646;55.802;37.032;2022-08-14T04:36:09;9.90;;;6.53;;
67514;SDS011;60646;55.802;37.032;2022-08-14T04:41:45;9.85;;;6.60;;
67514;SDS011;60646;55.802;37.032;2022-08-14T04:44:29;10.15;;;6.65;;
67514;SDS011;60646;55.802;37.032;2022-08-14T04:46:55;9.23;;;6.50;;
67514;SDS011;60646;55.802;37.032;2022-08-14T04:49:39;9.95;;;6.75;;
67514;SDS011;60646;55.802;37.032;2022-08-14T04:52:06;7.57;;;6.25;;
67514;SDS011;60646;55.802;37.032;2022-08-14T04:54:32;9.13;;;6.35;;
67514;SDS011;60646;55.802;37.032;2022-08-14T04:56:58;10.45;;;6.07;;
67514;SDS011;60646;55.802;37.032;2022-08-14T04:59:24;15.88;;;7.22;;
67514;SDS011;60646;55.802;37.032;2022-08-14T05:01:50;9.05;;;5.75;;
67514;SDS011;60646;55.802;37.032;2022-08-14T05:04:17;9.43;;;6.25;;
67514;SDS011;60646;55.802;37.032;2022-08-14T05:06:47;9.45;;;6.70;;
67514;SDS011;60646;55.802;37.032;2022-08-14T05:09:14;8.68;;;5.65;;
67514;SDS011;60646;55.802;37.032;2022-08-14T05:11:40;8.48;;;6.10;;
67514;SDS011;60646;55.802;37.032;2022-08-14T05:14:06;9.60;;;5.78;;
67514;SDS011;60646;55.802;37.032;2022-08-14T05:16:32;10.95;;;6.68;;
67514;SDS011;60646;55.802;37.032;2022-08-14T05:18:58;9.00;;;6.45;;
67514;SDS011;60646;55.802;37.032;2022-08-14T05:21:24;9.23;;;5.82;;
67514;SDS011;60646;55.802;37.032;2022-08-14T05:23:50;11.20;;;6.30;;
67514;SDS011;60646;55.802;37.032;2022-08-14T05:26:16;10.38;;;5.75;;
67514;SDS011;60646;55.802;37.032;2022-08-14T05:28:44;6.55;;;4.90;;
67514;SDS011;60646;55.802;37.032;2022-08-14T05:31:11;7.90;;;4.78;;
67514;SDS011;60646;55.802;37.032;2022-08-14T05:33:39;6.47;;;4.53;;
67514;SDS011;60646;55.802;37.032;2022-08-14T05:36:06;6.97;;;3.95;;
67514;SDS011;60646;55.802;37.032;2022-08-14T05:38:36;8.07;;;3.97;;
67514;SDS011;60646;55.802;37.032;2022-08-14T05:41:05;6.20;;;5.05;;
67514;SDS011;60646;55.802;37.032;2022-08-14T05:43:33;6.30;;;4.18;;
67514;SDS011;60646;55.802;37.032;2022-08-14T05:45:58;6.05;;;4.28;;
67514;SDS011;60646;55.802;37.032;2022-08-14T05:48:50;6.57;;;4.03;;
67514;SDS011;60646;55.802;37.032;2022-08-14T05:51:18;4.53;;;3.53;;
67514;SDS011;60646;55.802;37.032;2022-08-14T05:53:45;4.20;;;3.40;;
67514;SDS011;60646;55.802;37.032;2022-08-14T05:56:11;5.25;;;3.40;;
67514;SDS011;60646;55.802;37.032;2022-08-14T05:58:37;5.80;;;3.38;;
67514;SDS011;60646;55.802;37.032;2022-08-14T06:01:03;5.55;;;3.55;;
67514;SDS011;60646;55.802;37.032;2022-08-14T06:03:29;4.15;;;3.00;;
67514;SDS011;60646;55.802;37.032;2022-08-14T06:06:13;4.30;;;3.65;;
67514;SDS011;60646;55.802;37.032;2022-08-14T06:08:39;4.22;;;3.47;;
67514;SDS011;60646;55.802;37.032;2022-08-14T06:11:08;4.47;;;3.10;;
67514;SDS011;60646;55.802;37.032;2022-08-14T06:13:35;3.88;;;3.00;;
67514;SDS011;60646;55.802;37.032;2022-08-14T06:16:05;3.38;;;2.63;;
67514;SDS011;60646;55.802;37.032;2022-08-14T06:18:31;4.50;;;2.85;;
67514;SDS011;60646;55.802;37.032;2022-08-14T06:20:59;5.72;;;3.10;;
67514;SDS011;60646;55.802;37.032;2022-08-14T06:23:26;3.03;;;2.38;;
67514;SDS011;60646;55.802;37.032;2022-08-14T06:25:52;3.80;;;2.80;;
67514;SDS011;60646;55.802;37.032;2022-08-14T06:28:22;3.95;;;3.13;;
67514;SDS011;60646;55.802;37.032;2022-08-14T06:30:50;3.20;;;2.83;;
67514;SDS011;60646;55.802;37.032;2022-08-14T06:33:17;3.50;;;2.65;;
67514;SDS011;60646;55.802;37.032;2022-08-14T06:35:44;6.00;;;2.88;;
67514;SDS011;60646;55.802;37.032;2022-08-14T06:38:15;3.42;;;3.08;;
67514;SDS011;60646;55.802;37.032;2022-08-14T06:40:43;2.97;;;2.50;;
67514;SDS011;60646;55.802;37.032;2022-08-14T06:43:09;5.20;;;2.60;;
67514;SDS011;60646;55.802;37.032;2022-08-14T06:45:37;4.95;;;2.67;;
67514;SDS011;60646;55.802;37.032;2022-08-14T06:48:38;13.35;;;3.08;;
67514;SDS011;60646;55.802;37.032;2022-08-14T06:50:56;3.25;;;2.92;;
67514;SDS011;60646;55.802;37.032;2022-08-14T06:53:22;2.80;;;2.05;;
67514;SDS011;60646;55.802;37.032;2022-08-14T06:55:48;3.70;;;2.47;;
67514;SDS011;60646;55.802;37.032;2022-08-14T06:58:15;5.43;;;2.58;;
67514;SDS011;60646;55.802;37.032;2022-08-14T07:00:44;2.92;;;2.50;;
67514;SDS011;60646;55.802;37.032;2022-08-14T07:03:48;4.07;;;2.70;;
67514;SDS011;60646;55.802;37.032;2022-08-14T07:06:32;3.50;;;2.47;;
67514;SDS011;60646;55.802;37.032;2022-08-14T07:08:58;3.55;;;2.83;;
67514;SDS011;60646;55.802;37.032;2022-08-14T07:11:24;3.85;;;2.67;;
67514;SDS011;60646;55.802;37.032;2022-08-14T07:13:49;5.70;;;2.88;;
67514;SDS011;60646;55.802;37.032;2022-08-14T07:16:15;4.57;;;2.45;;
67514;SDS011;60646;55.802;37.032;2022-08-14T07:18:41;3.28;;;2.75;;
67514;SDS011;60646;55.802;37.032;2022-08-14T07:21:07;3.00;;;2.70;;
67514;SDS011;60646;55.802;37.032;2022-08-14T07:23:52;3.20;;;2.83;;
67514;SDS011;60646;55.802;37.032;2022-08-14T07:26:18;3.20;;;2.70;;
67514;SDS011;60646;55.802;37.032;2022-08-14T07:28:44;4.22;;;2.50;;
67514;SDS011;60646;55.802;37.032;2022-08-14T07:31:10;3.70;;;2.90;;
67514;SDS011;60646;55.802;37.032;2022-08-14T07:33:38;3.47;;;2.95;;
67514;SDS011;60646;55.802;37.032;2022-08-14T07:36:08;2.58;;;2.20;;
67514;SDS011;60646;55.802;37.032;2022-08-14T07:38:35;3.13;;;2.33;;
67514;SDS011;60646;55.802;37.032;2022-08-14T07:41:01;2.60;;;2.30;;
67514;SDS011;60646;55.802;37.032;2022-08-14T07:43:46;2.88;;;2.53;;
67514;SDS011;60646;55.802;37.032;2022-08-14T07:46:13;2.50;;;2.30;;
67514;SDS011;60646;55.802;37.032;2022-08-14T07:48:40;2.42;;;2.17;;
67514;SDS011;60646;55.802;37.032;2022-08-14T07:51:08;2.53;;;2.33;;
67514;SDS011;60646;55.802;37.032;2022-08-14T07:53:34;2.40;;;2.20;;
67514;SDS011;60646;55.802;37.032;2022-08-14T07:56:00;2.78;;;2.33;;
67514;SDS011;60646;55.802;37.032;2022-08-14T07:58:26;2.20;;;2.00;;
67514;SDS011;60646;55.802;37.032;2022-08-14T08:00:54;3.80;;;2.22;;
67514;SDS011;60646;55.802;37.032;2022-08-14T08:03:20;3.25;;;2.50;;
67514;SDS011;60646;55.802;37.032;2022-08-14T08:05:47;2.58;;;2.17;;
67514;SDS011;60646;55.802;37.032;2022-08-14T08:08:13;6.65;;;2.67;;
67514;SDS011;60646;55.802;37.032;2022-08-14T08:10:44;3.45;;;2.50;;
67514;SDS011;60646;55.802;37.032;2022-08-14T08:13:20;2.50;;;2.28;;
67514;SDS011;60646;55.802;37.032;2022-08-14T08:15:47;2.70;;;2.30;;
67514;SDS011;60646;55.802;37.032;2022-08-14T08:18:15;3.20;;;2.65;;
67514;SDS011;60646;55.802;37.032;2022-08-14T08:20:43;2.70;;;2.50;;
67514;SDS011;60646;55.802;37.032;2022-08-14T08:23:13;2.92;;;2.20;;
67514;SDS011;60646;55.802;37.032;2022-08-14T08:25:42;3.05;;;2.75;;
67514;SDS011;60646;55.802;37.032;2022-08-14T08:28:11;2.70;;;2.30;;
67514;SDS011;60646;55.802;37.032;2022-08-14T08:30:47;3.25;;;2.20;;
67514;SDS011;60646;55.802;37.032;2022-08-14T08:33:16;2.90;;;2.55;;
67514;SDS011;60646;55.802;37.032;2022-08-14T08:35:45;3.30;;;2.33;;
67514;SDS011;60646;55.802;37.032;2022-08-14T08:38:13;3.15;;;2.50;;
67514;SDS011;60646;55.802;37.032;2022-08-14T08:40:45;3.00;;;2.70;;
67514;SDS011;60646;55.802;37.032;2022-08-14T08:43:32;2.60;;;2.40;;
67514;SDS011;60646;55.802;37.032;2022-08-14T08:46:00;2.75;;;2.45;;
67514;SDS011;60646;55.802;37.032;2022-08-14T08:48:28;2.67;;;2.47;;
67514;SDS011;60646;55.802;37.032;2022-08-14T08:50:56;2.47;;;2.25;;
67514;SDS011;60646;55.802;37.032;2022-08-14T08:53:31;4.93;;;2.70;;
67514;SDS011;60646;55.802;37.032;2022-08-14T08:55:58;3.05;;;2.60;;
67514;SDS011;60646;55.802;37.032;2022-08-14T08:58:24;3.13;;;2.55;;
67514;SDS011;60646;55.802;37.032;2022-08-14T09:00:52;3.42;;;2.80;;
67514;SDS011;60646;55.802;37.032;2022-08-14T09:03:20;4.85;;;3.42;;
67514;SDS011;60646;55.802;37.032;2022-08-14T09:05:58;4.30;;;3.83;;
67514;SDS011;60646;55.802;37.032;2022-08-14T09:08:34;3.13;;;2.78;;
67514;SDS011;60646;55.802;37.032;2022-08-14T09:11:16;3.60;;;2.40;;
67514;SDS011;60646;55.802;37.032;2022-08-14T09:13:41;3.00;;;2.50;;
67514;SDS011;60646;55.802;37.032;2022-08-14T09:16:08;2.58;;;2.38;;
67514;SDS011;60646;55.802;37.032;2022-08-14T09:18:34;2.70;;;2.50;;
67514;SDS011;60646;55.802;37.032;2022-08-14T09:21:03;3.90;;;2.47;;
67514;SDS011;60646;55.802;37.032;2022-08-14T09:23:29;2.88;;;2.40;;
67514;SDS011;60646;55.802;37.032;2022-08-14T09:25:56;7.05;;;2.58;;
67514;SDS011;60646;55.802;37.032;2022-08-14T09:28:22;4.20;;;2.95;;
67514;SDS011;60646;55.802;37.032;2022-08-14T09:30:48;9.70;;;2.72;;
67514;SDS011;60646;55.802;37.032;2022-08-14T09:36:36;2.40;;;2.20;;
67514;SDS011;60646;55.802;37.032;2022-08-14T09:39:28;2.40;;;2.20;;
67514;SDS011;60646;55.802;37.032;2022-08-14T09:47:39;2.67;;;2.42;;
67514;SDS011;60646;55.802;37.032;2022-08-14T09:52:54;4.10;;;2.72;;
67514;SDS011;60646;55.802;37.032;2022-08-14T09:55:23;2.50;;;2.30;;
67514;SDS011;60646;55.802;37.032;2022-08-14T09:57:51;2.58;;;2.38;;
67514;SDS011;60646;55.802;37.032;2022-08-14T10:00:18;2.72;;;2.53;;
67514;SDS011;60646;55.802;37.032;2022-08-14T10:02:51;3.40;;;2.70;;
67514;SDS011;60646;55.802;37.032;2022-08-14T10:05:33;3.42;;;2.60;;
67514;SDS011;60646;55.802;37.032;2022-08-14T10:08:01;2.50;;;2.30;;
67514;SDS011;60646;55.802;37.032;2022-08-14T10:12:57;2.88;;;2.38;;
67514;SDS011;60646;55.802;37.032;2022-08-14T10:15:25;3.08;;;2.72;;
67514;SDS011;60646;55.802;37.032;2022-08-14T10:18:07;3.00;;;2.55;;
67514;SDS011;60646;55.802;37.032;2022-08-14T10:20:37;4.10;;;2.97;;
67514;SDS011;60646;55.802;37.032;2022-08-14T10:23:10;5.60;;;3.05;;
67514;SDS011;60646;55.802;37.032;2022-08-14T10:25:42;2.80;;;2.55;;
67514;SDS011;60646;55.802;37.032;2022-08-14T10:28:15;3.00;;;2.72;;
67514;SDS011;60646;55.802;37.032;2022-08-14T10:30:42;4.25;;;2.53;;
67514;SDS011;60646;55.802;37.032;2022-08-14T10:33:22;2.92;;;2.63;;
67514;SDS011;60646;55.802;37.032;2022-08-14T10:35:52;2.55;;;2.35;;
67514;SDS011;60646;55.802;37.032;2022-08-14T10:38:25;3.20;;;2.90;;
67514;SDS011;60646;55.802;37.032;2022-08-14T10:41:08;2.90;;;2.60;;
67514;SDS011;60646;55.802;37.032;2022-08-14T10:44:08;2.85;;;2.55;;
67514;SDS011;60646;55.802;37.032;2022-08-14T10:46:45;3.20;;;2.90;;
67514;SDS011;60646;55.802;37.032;2022-08-14T10:49:23;2.83;;;2.55;;
67514;SDS011;60646;55.802;37.032;2022-08-14T10:51:58;3.33;;;2.60;;
67514;SDS011;60646;55.802;37.032;2022-08-14T10:57:09;3.60;;;2.90;;
67514;SDS011;60646;55.802;37.032;2022-08-14T10:59:40;3.30;;;2.75;;
67514;SDS011;60646;55.802;37.032;2022-08-14T11:02:17;2.92;;;2.63;;
67514;SDS011;60646;55.802;37.032;2022-08-14T11:10:18;5.00;;;2.50;;
67514;SDS011;60646;55.802;37.032;2022-08-14T11:12:45;2.85;;;2.53;;
67514;SDS011;60646;55.802;37.032;2022-08-14T11:15:17;3.92;;;2.95;;
67514;SDS011;60646;55.802;37.032;2022-08-14T11:17:44;3.25;;;2.95;;
67514;SDS011;60646;55.802;37.032;2022-08-14T11:20:12;3.78;;;3.03;;
67514;SDS011;60646;55.802;37.032;2022-08-14T11:22:39;3.58;;;3.03;;
67514;SDS011;60646;55.802;37.032;2022-08-14T11:25:16;4.00;;;2.90;;
67514;SDS011;60646;55.802;37.032;2022-08-14T11:27:45;3.28;;;2.97;;
67514;SDS011;60646;55.802;37.032;2022-08-14T11:30:13;3.22;;;2.92;;
67514;SDS011;60646;55.802;37.032;2022-08-14T11:32:43;3.50;;;2.70;;
67514;SDS011;60646;55.802;37.032;2022-08-14T11:35:10;3.05;;;2.75;;
67514;SDS011;60646;55.802;37.032;2022-08-14T11:37:58;6.57;;;3.20;;
67514;SDS011;60646;55.802;37.032;2022-08-14T11:40:27;4.30;;;2.92;;
67514;SDS011;60646;55.802;37.032;2022-08-14T11:42:55;6.78;;;3.33;;
67514;SDS011;60646;55.802;37.032;2022-08-14T11:45:25;3.28;;;2.97;;
67514;SDS011;60646;55.802;37.032;2022-08-14T11:47:56;3.72;;;2.97;;
67514;SDS011;60646;55.802;37.032;2022-08-14T11:50:23;3.10;;;2.72;;
67514;SDS011;60646;55.802;37.032;2022-08-14T11:52:51;3.63;;;3.10;;
67514;SDS011;60646;55.802;37.032;2022-08-14T11:55:23;3.10;;;2.85;;
67514;SDS011;60646;55.802;37.032;2022-08-14T11:58:07;6.53;;;2.70;;
67514;SDS011;60646;55.802;37.032;2022-08-14T12:00:51;4.68;;;3.10;;
67514;SDS011;60646;55.802;37.032;2022-08-14T12:03:18;3.50;;;3.20;;
67514;SDS011;60646;55.802;37.032;2022-08-14T12:05:44;3.25;;;2.92;;
67514;SDS011;60646;55.802;37.032;2022-08-14T12:08:10;4.35;;;2.80;;
67514;SDS011;60646;55.802;37.032;2022-08-14T12:10:37;3.53;;;3.05;;
67514;SDS011;60646;55.802;37.032;2022-08-14T12:13:15;4.13;;;3.42;;
67514;SDS011;60646;55.802;37.032;2022-08-14T12:15:47;4.13;;;3.40;;
67514;SDS011;60646;55.802;37.032;2022-08-14T12:19:06;6.28;;;3.10;;
67514;SDS011;60646;55.802;37.032;2022-08-14T12:21:32;3.42;;;2.75;;
67514;SDS011;60646;55.802;37.032;2022-08-14T12:24:05;3.63;;;3.00;;
67514;SDS011;60646;55.802;37.032;2022-08-14T12:26:32;3.75;;;3.05;;
67514;SDS011;60646;55.802;37.032;2022-08-14T12:29:11;5.43;;;3.05;;
67514;SDS011;60646;55.802;37.032;2022-08-14T12:31:39;3.20;;;2.90;;
67514;SDS011;60646;55.802;37.032;2022-08-14T12:34:12;4.35;;;3.33;;
67514;SDS011;60646;55.802;37.032;2022-08-14T12:36:40;3.63;;;3.10;;
67514;SDS011;60646;55.802;37.032;2022-08-14T12:39:18;3.72;;;2.97;;
67514;SDS011;60646;55.802;37.032;2022-08-14T12:41:49;4.68;;;3.30;;
67514;SDS011;60646;55.802;37.032;2022-08-14T12:44:27;6.03;;;3.00;;
67514;SDS011;60646;55.802;37.032;2022-08-14T12:47:10;3.25;;;2.80;;
67514;SDS011;60646;55.802;37.032;2022-08-14T12:49:51;2.88;;;2.67;;
67514;SDS011;60646;55.802;37.032;2022-08-14T12:52:52;3.15;;;2.85;;
67514;SDS011;60646;55.802;37.032;2022-08-14T12:55:15;3.58;;;2.97;;
67514;SDS011;60646;55.802;37.032;2022-08-14T12:57:42;3.15;;;2.83;;
67514;SDS011;60646;55.802;37.032;2022-08-14T13:00:16;3.05;;;2.78;;
67514;SDS011;60646;55.802;37.032;2022-08-14T13:02:44;7.35;;;3.40;;
67514;SDS011;60646;55.802;37.032;2022-08-14T13:05:12;3.78;;;2.88;;
67514;SDS011;60646;55.802;37.032;2022-08-14T13:07:39;5.45;;;3.60;;
67514;SDS011;60646;55.802;37.032;2022-08-14T13:10:10;3.00;;;2.80;;
67514;SDS011;60646;55.802;37.032;2022-08-14T13:12:38;3.20;;;2.90;;
67514;SDS011;60646;55.802;37.032;2022-08-14T13:15:12;3.60;;;3.05;;
67514;SDS011;60646;55.802;37.032;2022-08-14T13:17:43;8.27;;;3.50;;
67514;SDS011;60646;55.802;37.032;2022-08-14T13:20:12;4.13;;;3.15;;
67514;SDS011;60646;55.802;37.032;2022-08-14T13:22:39;3.40;;;3.10;;
67514;SDS011;60646;55.802;37.032;2022-08-14T13:25:10;5.03;;;3.50;;
67514;SDS011;60646;55.802;37.032;2022-08-14T13:27:38;3.60;;;3.08;;
67514;SDS011;60646;55.802;37.032;2022-08-14T13:30:05;3.38;;;2.97;;
67514;SDS011;60646;55.802;37.032;2022-08-14T13:32:33;3.63;;;3.17;;
67514;SDS011;60646;55.802;37.032;2022-08-14T13:35:00;5.75;;;2.88;;
67514;SDS011;60646;55.802;37.032;2022-08-14T13:37:26;3.60;;;3.30;;
67514;SDS011;60646;55.802;37.032;2022-08-14T13:39:52;4.65;;;3.45;;
67514;SDS011;60646;55.802;37.032;2022-08-14T13:42:19;4.88;;;3.42;;
67514;SDS011;60646;55.802;37.032;2022-08-14T13:44:49;3.10;;;2.80;;
67514;SDS011;60646;55.802;37.032;2022-08-14T13:47:17;6.40;;;3.90;;
67514;SDS011;60646;55.802;37.032;2022-08-14T13:49:45;3.60;;;2.95;;
67514;SDS011;60646;55.802;37.032;2022-08-14T13:52:12;3.58;;;3.28;;
67514;SDS011;60646;55.802;37.032;2022-08-14T13:54:43;5.57;;;3.58;;
67514;SDS011;60646;55.802;37.032;2022-08-14T13:57:11;4.20;;;3.65;;
67514;SDS011;60646;55.802;37.032;2022-08-14T13:59:42;3.63;;;3.33;;
67514;SDS011;60646;55.802;37.032;2022-08-14T14:02:11;3.90;;;3.50;;
67514;SDS011;60646;55.802;37.032;2022-08-14T14:04:41;3.95;;;3.17;;
67514;SDS011;60646;55.802;37.032;2022-08-14T14:07:13;4.45;;;3.35;;
67514;SDS011;60646;55.802;37.032;2022-08-14T14:09:41;4.57;;;3.58;;
67514;SDS011;60646;55.802;37.032;2022-08-14T14:12:10;3.78;;;3.10;;
67514;SDS011;60646;55.802;37.032;2022-08-14T14:14:37;5.65;;;3.60;;
67514;SDS011;60646;55.802;37.032;2022-08-14T14:17:04;3.90;;;3.50;;
67514;SDS011;60646;55.802;37.032;2022-08-14T14:19:31;5.20;;;3.58;;
67514;SDS011;60646;55.802;37.032;2022-08-14T14:22:00;5.63;;;4.03;;
67514;SDS011;60646;55.802;37.032;2022-08-14T14:24:33;3.72;;;3.42;;
67514;SDS011;60646;55.802;37.032;2022-08-14T14:27:02;3.50;;;2.95;;
67514;SDS011;60646;55.802;37.032;2022-08-14T14:29:32;5.20;;;3.70;;
67514;SDS011;60646;55.802;37.032;2022-08-14T14:31:59;4.25;;;3.40;;
67514;SDS011;60646;55.802;37.032;2022-08-14T14:34:26;5.15;;;3.97;;
67514;SDS011;60646;55.802;37.032;2022-08-14T14:36:53;3.95;;;3.55;;
67514;SDS011;60646;55.802;37.032;2022-08-14T14:39:20;3.70;;;3.35;;
67514;SDS011;60646;55.802;37.032;2022-08-14T14:41:51;3.95;;;3.40;;
67514;SDS011;60646;55.802;37.032;2022-08-14T14:44:23;4.28;;;3.60;;
67514;SDS011;60646;55.802;37.032;2022-08-14T14:46:52;5.95;;;4.05;;
67514;SDS011;60646;55.802;37.032;2022-08-14T14:49:18;7.15;;;4.32;;
67514;SDS011;60646;55.802;37.032;2022-08-14T14:51:45;6.78;;;3.80;;
67514;SDS011;60646;55.802;37.032;2022-08-14T14:54:11;4.03;;;3.60;;
67514;SDS011;60646;55.802;37.032;2022-08-14T14:56:38;3.88;;;3.55;;
67514;SDS011;60646;55.802;37.032;2022-08-14T14:59:06;3.80;;;3.40;;
67514;SDS011;60646;55.802;37.032;2022-08-14T15:01:35;5.68;;;4.60;;
67514;SDS011;60646;55.802;37.032;2022-08-14T15:04:01;6.38;;;5.28;;
67514;SDS011;60646;55.802;37.032;2022-08-14T15:06:29;6.25;;;5.03;;
67514;SDS011;60646;55.802;37.032;2022-08-14T15:08:56;6.20;;;4.85;;
67514;SDS011;60646;55.802;37.032;2022-08-14T15:11:23;5.38;;;4.40;;
67514;SDS011;60646;55.802;37.032;2022-08-14T15:14:09;8.50;;;4.20;;
67514;SDS011;60646;55.802;37.032;2022-08-14T15:16:34;5.80;;;4.43;;
67514;SDS011;60646;55.802;37.032;2022-08-14T15:19:00;4.60;;;3.80;;
67514;SDS011;60646;55.802;37.032;2022-08-14T15:21:26;4.50;;;3.92;;